createdAt,value
2017-08-11T00:00:31.741Z,16.65
2017-08-11T00:01:31.728Z,16.7
2017-08-11T00:02:31.770Z,16.67
2017-08-11T00:03:31.397Z,16.71
2017-08-11T00:04:31.380Z,16.7
2017-08-11T00:05:31.053Z,16.71
2017-08-11T00:06:31.674Z,16.73
2017-08-11T00:07:31.732Z,16.73
2017-08-11T00:08:31.645Z,16.74
2017-08-11T00:09:31.010Z,16.71
2017-08-11T00:10:31.622Z,16.89
2017-08-11T00:11:31.624Z,16.74
2017-08-11T00:12:31.291Z,16.77
2017-08-11T00:13:31.604Z,16.8
2017-08-11T00:14:30.953Z,16.83
2017-08-11T00:15:31.252Z,16.85
2017-08-11T00:16:31.250Z,16.78
2017-08-11T00:17:31.549Z,16.71
2017-08-11T00:18:31.224Z,16.74
2017-08-11T00:19:31.219Z,16.7
2017-08-11T00:20:30.884Z,16.68
2017-08-11T00:21:30.870Z,16.68
2017-08-11T00:22:31.176Z,16.71
2017-08-11T00:23:31.510Z,16.74
2017-08-11T00:24:31.461Z,16.77
2017-08-11T00:25:31.140Z,16.71
2017-08-11T00:26:31.177Z,16.74
2017-08-11T00:27:30.805Z,16.75
2017-08-11T00:28:31.424Z,16.74
2017-08-11T00:29:31.404Z,16.71
2017-08-11T00:30:30.776Z,16.71
2017-08-11T00:31:31.069Z,16.78
2017-08-11T00:32:31.055Z,16.71
2017-08-11T00:33:31.062Z,16.7
2017-08-11T00:34:31.352Z,16.6
2017-08-11T00:35:31.375Z,16.6
2017-08-11T00:36:31.326Z,16.58
2017-08-11T00:37:31.312Z,16.63
2017-08-11T00:38:30.991Z,16.59
2017-08-11T00:39:31.293Z,16.59
2017-08-11T00:40:30.658Z,16.58
2017-08-11T00:41:31.271Z,16.59
2017-08-11T00:42:31.260Z,16.59
2017-08-11T00:43:30.937Z,16.53
2017-08-11T00:44:30.609Z,16.59
2017-08-11T00:45:30.597Z,16.5
2017-08-11T00:46:31.213Z,16.52
2017-08-11T00:47:30.576Z,16.5
2017-08-11T00:48:31.194Z,16.5
2017-08-11T00:49:30.869Z,16.49
2017-08-11T00:50:31.164Z,16.49
2017-08-11T00:51:30.528Z,16.49
2017-08-11T00:52:31.147Z,16.45
2017-08-11T00:53:31.140Z,16.45
2017-08-11T00:54:31.124Z,16.48
2017-08-11T00:55:30.799Z,16.45
2017-08-11T00:56:30.807Z,16.37
2017-08-11T00:57:31.085Z,16.35
2017-08-11T00:58:31.070Z,16.33
2017-08-11T00:59:31.057Z,16.44
2017-08-11T01:00:31.052Z,16.38
2017-08-11T01:01:31.046Z,16.37
2017-08-11T01:02:31.026Z,16.41
2017-08-11T01:03:31.018Z,16.25
2017-08-11T01:04:30.997Z,16.37
2017-08-11T01:05:30.989Z,16.31
2017-08-11T01:06:30.984Z,16.35
2017-08-11T01:07:30.343Z,16.26
2017-08-11T01:08:30.965Z,16.31
2017-08-11T01:09:30.324Z,16.3
2017-08-11T01:10:30.929Z,16.33
2017-08-11T01:11:30.926Z,16.22
2017-08-11T01:12:30.906Z,16.23
2017-08-11T01:13:30.908Z,16.22
2017-08-11T01:14:30.575Z,16.23
2017-08-11T01:15:30.887Z,16.25
2017-08-11T01:16:31.081Z,16.23
2017-08-11T01:17:30.853Z,16.3
2017-08-11T01:18:30.837Z,16.3
2017-08-11T01:19:30.825Z,16.26
2017-08-11T01:20:30.498Z,16.26
2017-08-11T01:21:30.179Z,16.26
2017-08-11T01:22:30.793Z,16.26
2017-08-11T01:23:30.468Z,16.22
2017-08-11T01:24:30.773Z,16.22
2017-08-11T01:25:30.454Z,16.22
2017-08-11T01:26:30.745Z,16.18
2017-08-11T01:27:30.771Z,16.22
2017-08-11T01:28:30.098Z,16.3
2017-08-11T01:29:30.395Z,16.26
2017-08-11T01:30:30.392Z,16.23
2017-08-11T01:31:30.693Z,16.25
2017-08-11T01:32:30.678Z,16.18
2017-08-11T01:33:30.662Z,16.16
2017-08-11T01:34:30.652Z,16.22
2017-08-11T01:35:30.640Z,16.16
2017-08-11T01:36:30.009Z,16.2
2017-08-11T01:37:30.822Z,16.18
2017-08-11T01:38:30.293Z,16.2
2017-08-11T01:39:30.300Z,16.15
2017-08-11T01:40:30.270Z,16.22
2017-08-11T01:41:30.565Z,16.14
2017-08-11T01:42:30.613Z,16.12
2017-08-11T01:43:30.230Z,16.09
2017-08-11T01:44:30.532Z,16.15
2017-08-11T01:45:30.525Z,16.09
2017-08-11T01:46:30.513Z,16.12
2017-08-11T01:47:30.512Z,16.04
2017-08-11T01:48:29.903Z,16.12
2017-08-11T01:49:30.162Z,16.01
2017-08-11T01:50:30.151Z,16.06
2017-08-11T01:51:30.139Z,16.11
2017-08-11T01:52:30.441Z,16.07
2017-08-11T01:53:30.431Z,16.11
2017-08-11T01:54:30.424Z,16.03
2017-08-11T01:55:30.108Z,16.03
2017-08-11T01:56:30.111Z,15.99
2017-08-11T01:57:30.383Z,15.99
2017-08-11T01:58:29.756Z,16.04
2017-08-11T01:59:30.048Z,16.01
2017-08-11T02:00:30.032Z,15.97
2017-08-11T02:01:30.024Z,15.97
2017-08-11T02:02:30.322Z,15.92
2017-08-11T02:03:29.998Z,15.96
2017-08-11T02:04:29.982Z,15.92
2017-08-11T02:05:29.977Z,15.93
2017-08-11T02:06:30.280Z,15.94
2017-08-11T02:07:29.943Z,15.89
2017-08-11T02:08:30.258Z,15.88
2017-08-11T02:09:30.242Z,15.94
2017-08-11T02:10:29.915Z,15.92
2017-08-11T02:11:29.593Z,15.88
2017-08-11T02:12:30.207Z,15.89
2017-08-11T02:13:29.879Z,15.89
2017-08-11T02:14:29.555Z,15.89
2017-08-11T02:15:29.852Z,15.88
2017-08-11T02:16:30.158Z,15.93
2017-08-11T02:17:30.144Z,15.88
2017-08-11T02:18:30.339Z,15.94
2017-08-11T02:19:30.124Z,15.82
2017-08-11T02:20:29.797Z,15.86
2017-08-11T02:21:29.783Z,15.82
2017-08-11T02:22:30.083Z,15.88
2017-08-11T02:23:29.758Z,15.76
2017-08-11T02:24:30.057Z,15.84
2017-08-11T02:25:29.939Z,15.81
2017-08-11T02:26:29.744Z,15.82
2017-08-11T02:27:30.025Z,15.86
2017-08-11T02:28:30.014Z,15.74
2017-08-11T02:29:29.688Z,15.76
2017-08-11T02:30:29.985Z,15.78
2017-08-11T02:31:29.661Z,15.84
2017-08-11T02:32:29.966Z,15.72
2017-08-11T02:33:29.958Z,15.85
2017-08-11T02:34:29.633Z,15.76
2017-08-11T02:35:29.935Z,15.86
2017-08-11T02:36:29.600Z,15.84
2017-08-11T02:37:29.593Z,15.72
2017-08-11T02:38:29.893Z,15.76
2017-08-11T02:39:29.567Z,15.76
2017-08-11T02:40:29.556Z,15.74
2017-08-11T02:41:29.547Z,15.7
2017-08-11T02:42:29.850Z,15.7
2017-08-11T02:43:29.519Z,15.68
2017-08-11T02:44:29.514Z,15.76
2017-08-11T02:45:29.811Z,15.76
2017-08-11T02:46:29.798Z,15.68
2017-08-11T02:47:29.474Z,15.68
2017-08-11T02:48:29.774Z,15.67
2017-08-11T02:49:29.759Z,15.68
2017-08-11T02:50:29.439Z,15.64
2017-08-11T02:51:29.455Z,15.63
2017-08-11T02:52:29.407Z,15.64
2017-08-11T02:53:29.413Z,15.68
2017-08-11T02:54:29.390Z,15.64
2017-08-11T02:55:29.060Z,15.74
2017-08-11T02:56:29.053Z,15.67
2017-08-11T02:57:29.354Z,15.7
2017-08-11T02:58:29.660Z,15.68
2017-08-11T02:59:29.017Z,15.63
2017-08-11T03:00:29.678Z,15.67
2017-08-11T03:01:29.612Z,15.66
2017-08-11T03:02:29.596Z,15.68
2017-08-11T03:03:29.282Z,15.66
2017-08-11T03:04:29.265Z,15.63
2017-08-11T03:05:29.613Z,15.64
2017-08-11T03:06:29.241Z,15.67
2017-08-11T03:07:29.543Z,15.68
2017-08-11T03:08:29.214Z,15.64
2017-08-11T03:09:29.514Z,15.64
2017-08-11T03:10:28.930Z,15.67
2017-08-11T03:11:29.181Z,15.67
2017-08-11T03:12:29.480Z,15.64
2017-08-11T03:13:29.163Z,15.67
2017-08-11T03:14:29.455Z,15.66
2017-08-11T03:15:29.450Z,15.63
2017-08-11T03:16:28.811Z,15.68
2017-08-11T03:17:29.430Z,15.72
2017-08-11T03:18:28.786Z,15.66
2017-08-11T03:19:29.087Z,15.64
2017-08-11T03:20:29.111Z,15.61
2017-08-11T03:21:29.370Z,15.66
2017-08-11T03:22:29.358Z,15.64
2017-08-11T03:23:29.345Z,15.64
2017-08-11T03:24:28.712Z,15.6
2017-08-11T03:25:29.010Z,15.64
2017-08-11T03:26:29.002Z,15.67
2017-08-11T03:27:29.298Z,15.64
2017-08-11T03:28:28.980Z,15.64
2017-08-11T03:29:28.968Z,15.63
2017-08-11T03:30:29.268Z,15.67
2017-08-11T03:31:29.254Z,15.64
2017-08-11T03:32:28.932Z,15.63
2017-08-11T03:33:29.228Z,15.63
2017-08-11T03:34:28.902Z,15.64
2017-08-11T03:35:28.900Z,15.66
2017-08-11T03:36:28.883Z,15.68
2017-08-11T03:37:29.068Z,15.66
2017-08-11T03:38:28.858Z,15.66
2017-08-11T03:39:29.154Z,15.68
2017-08-11T03:40:28.838Z,15.67
2017-08-11T03:41:28.555Z,15.61
2017-08-11T03:42:29.119Z,15.57
2017-08-11T03:43:28.791Z,15.6
2017-08-11T03:44:28.789Z,15.61
2017-08-11T03:45:28.456Z,15.64
2017-08-11T03:46:29.065Z,15.6
2017-08-11T03:47:29.059Z,15.56
2017-08-11T03:48:28.737Z,15.57
2017-08-11T03:49:28.413Z,15.68
2017-08-11T03:50:28.708Z,15.56
2017-08-11T03:51:28.706Z,15.59
2017-08-11T03:52:29.000Z,15.59
2017-08-11T03:53:28.987Z,15.61
2017-08-11T03:54:28.660Z,15.6
2017-08-11T03:55:28.670Z,15.63
2017-08-11T03:56:28.318Z,15.59
2017-08-11T03:57:28.623Z,15.59
2017-08-11T03:58:28.610Z,15.59
2017-08-11T03:59:28.602Z,15.63
2017-08-11T04:00:28.900Z,15.57
2017-08-11T04:01:28.892Z,15.67
2017-08-11T04:02:28.563Z,15.68
2017-08-11T04:03:28.556Z,15.63
2017-08-11T04:04:28.851Z,15.61
2017-08-11T04:05:28.209Z,15.64
2017-08-11T04:06:28.826Z,15.59
2017-08-11T04:07:28.849Z,15.56
2017-08-11T04:08:28.804Z,15.61
2017-08-11T04:09:28.786Z,15.6
2017-08-11T04:10:28.489Z,15.57
2017-08-11T04:11:28.776Z,15.57
2017-08-11T04:12:28.443Z,15.56
2017-08-11T04:13:28.432Z,15.61
2017-08-11T04:14:28.102Z,15.57
2017-08-11T04:15:28.414Z,15.64
2017-08-11T04:16:28.713Z,15.56
2017-08-11T04:17:28.384Z,15.56
2017-08-11T04:18:28.680Z,15.57
2017-08-11T04:19:28.355Z,15.57
2017-08-11T04:20:28.345Z,15.54
2017-08-11T04:21:28.642Z,15.6
2017-08-11T04:22:28.626Z,15.6
2017-08-11T04:23:27.999Z,15.56
2017-08-11T04:24:28.298Z,15.56
2017-08-11T04:25:28.595Z,15.56
2017-08-11T04:26:28.604Z,15.56
2017-08-11T04:27:28.568Z,15.59
2017-08-11T04:28:28.248Z,15.57
2017-08-11T04:29:28.541Z,15.63
2017-08-11T04:30:28.533Z,15.6
2017-08-11T04:31:28.516Z,15.52
2017-08-11T04:32:28.248Z,15.52
2017-08-11T04:33:28.499Z,15.63
2017-08-11T04:34:28.178Z,15.59
2017-08-11T04:35:28.163Z,15.61
2017-08-11T04:36:28.463Z,15.57
2017-08-11T04:37:27.819Z,15.6
2017-08-11T04:38:28.131Z,15.61
2017-08-11T04:39:28.110Z,15.6
2017-08-11T04:40:28.438Z,15.6
2017-08-11T04:41:28.399Z,15.61
2017-08-11T04:42:28.388Z,15.6
2017-08-11T04:43:28.375Z,15.6
2017-08-11T04:44:28.398Z,15.59
2017-08-11T04:45:28.032Z,15.59
2017-08-11T04:46:28.333Z,15.6
2017-08-11T04:47:28.013Z,15.64
2017-08-11T04:48:27.997Z,15.6
2017-08-11T04:49:28.297Z,15.59
2017-08-11T04:50:27.980Z,15.67
2017-08-11T04:51:27.959Z,15.66
2017-08-11T04:52:28.321Z,15.6
2017-08-11T04:53:27.937Z,15.61
2017-08-11T04:54:27.925Z,15.59
2017-08-11T04:55:27.910Z,15.66
2017-08-11T04:56:27.903Z,15.68
2017-08-11T04:57:28.203Z,15.61
2017-08-11T04:58:28.205Z,15.63
2017-08-11T04:59:27.559Z,15.6
2017-08-11T05:00:28.168Z,15.64
2017-08-11T05:01:27.839Z,15.64
2017-08-11T05:02:28.142Z,15.6
2017-08-11T05:03:27.824Z,15.63
2017-08-11T05:04:28.115Z,15.56
2017-08-11T05:05:27.482Z,15.63
2017-08-11T05:06:28.095Z,15.63
2017-08-11T05:07:28.128Z,15.64
2017-08-11T05:08:27.787Z,15.6
2017-08-11T05:09:27.754Z,15.57
2017-08-11T05:10:28.047Z,15.63
2017-08-11T05:11:27.722Z,15.63
2017-08-11T05:12:27.720Z,15.67
2017-08-11T05:13:27.701Z,15.7
2017-08-11T05:14:27.370Z,15.63
2017-08-11T05:15:27.357Z,15.64
2017-08-11T05:16:27.656Z,15.64
2017-08-11T05:17:27.732Z,15.6
2017-08-11T05:18:27.638Z,15.68
2017-08-11T05:19:27.629Z,15.68
2017-08-11T05:20:27.615Z,15.64
2017-08-11T05:21:27.937Z,15.7
2017-08-11T05:22:27.582Z,15.66
2017-08-11T05:23:27.258Z,15.67
2017-08-11T05:24:27.252Z,15.66
2017-08-11T05:25:27.546Z,15.66
2017-08-11T05:26:27.853Z,15.66
2017-08-11T05:27:27.848Z,15.66
2017-08-11T05:28:27.513Z,15.7
2017-08-11T05:29:27.821Z,15.64
2017-08-11T05:30:27.182Z,15.67
2017-08-11T05:31:27.476Z,15.61
2017-08-11T05:32:27.468Z,15.68
2017-08-11T05:33:27.769Z,15.6
2017-08-11T05:34:27.752Z,15.68
2017-08-11T05:35:27.743Z,15.67
2017-08-11T05:36:27.731Z,15.67
2017-08-11T05:37:27.967Z,15.64
2017-08-11T05:38:27.387Z,15.72
2017-08-11T05:39:27.719Z,15.61
2017-08-11T05:40:27.686Z,15.74
2017-08-11T05:41:27.670Z,15.75
2017-08-11T05:42:27.034Z,15.74
2017-08-11T05:43:27.336Z,15.81
2017-08-11T05:44:27.633Z,15.78
2017-08-11T05:45:27.618Z,15.7
2017-08-11T05:46:27.609Z,15.72
2017-08-11T05:47:27.597Z,15.7
2017-08-11T05:48:27.578Z,15.78
2017-08-11T05:49:27.259Z,15.75
2017-08-11T05:50:27.568Z,15.72
2017-08-11T05:51:27.546Z,15.68
2017-08-11T05:52:27.233Z,15.76
2017-08-11T05:53:26.905Z,15.68
2017-08-11T05:54:27.203Z,15.74
2017-08-11T05:55:27.190Z,15.74
2017-08-11T05:56:27.490Z,15.7
2017-08-11T05:57:27.164Z,15.75
2017-08-11T05:58:27.150Z,15.72
2017-08-11T05:59:26.827Z,15.84
2017-08-11T06:00:27.445Z,15.82
2017-08-11T06:01:27.428Z,15.76
2017-08-11T06:02:27.418Z,15.78
2017-08-11T06:03:27.094Z,15.76
2017-08-11T06:04:27.395Z,15.75
2017-08-11T06:05:27.072Z,15.81
2017-08-11T06:06:27.369Z,15.85
2017-08-11T06:07:26.738Z,15.79
2017-08-11T06:08:27.033Z,15.72
2017-08-11T06:09:27.333Z,15.81
2017-08-11T06:10:27.323Z,15.79
2017-08-11T06:11:27.001Z,15.79
2017-08-11T06:12:27.305Z,15.79
2017-08-11T06:13:27.291Z,15.85
2017-08-11T06:14:26.644Z,15.78
2017-08-11T06:15:27.262Z,15.82
2017-08-11T06:16:27.253Z,15.78
2017-08-11T06:17:26.968Z,15.78
2017-08-11T06:18:27.224Z,15.76
2017-08-11T06:19:26.624Z,15.85
2017-08-11T06:20:26.891Z,15.85
2017-08-11T06:21:27.193Z,15.85
2017-08-11T06:22:26.881Z,15.93
2017-08-11T06:23:26.846Z,15.92
2017-08-11T06:24:26.835Z,15.93
2017-08-11T06:25:27.142Z,15.92
2017-08-11T06:26:26.502Z,15.92
2017-08-11T06:27:26.492Z,15.94
2017-08-11T06:28:27.106Z,15.96
2017-08-11T06:29:27.095Z,16.01
2017-08-11T06:30:26.767Z,15.99
2017-08-11T06:31:26.758Z,15.99
2017-08-11T06:32:26.789Z,15.97
2017-08-11T06:33:26.733Z,15.96
2017-08-11T06:34:26.410Z,15.97
2017-08-11T06:35:27.038Z,16.04
2017-08-11T06:36:26.704Z,16.03
2017-08-11T06:37:26.996Z,16.16
2017-08-11T06:38:26.994Z,16.16
2017-08-11T06:39:26.677Z,16.07
2017-08-11T06:40:26.967Z,16.15
2017-08-11T06:41:26.653Z,16.18
2017-08-11T06:42:26.942Z,16.2
2017-08-11T06:43:26.619Z,16.27
2017-08-11T06:44:26.617Z,16.27
2017-08-11T06:45:26.907Z,16.27
2017-08-11T06:46:26.587Z,16.26
2017-08-11T06:47:26.260Z,16.31
2017-08-11T06:48:26.874Z,16.3
2017-08-11T06:49:26.554Z,16.34
2017-08-11T06:50:26.852Z,16.35
2017-08-11T06:51:26.224Z,16.4
2017-08-11T06:52:26.520Z,16.26
2017-08-11T06:53:26.820Z,16.27
2017-08-11T06:54:26.492Z,16.37
2017-08-11T06:55:26.793Z,16.27
2017-08-11T06:56:26.473Z,16.33
2017-08-11T06:57:26.462Z,16.27
2017-08-11T06:58:26.758Z,16.31
2017-08-11T06:59:26.436Z,16.27
2017-08-11T07:00:26.733Z,16.34
2017-08-11T07:01:26.413Z,16.27
2017-08-11T07:02:26.401Z,16.35
2017-08-11T07:03:26.711Z,16.35
2017-08-11T07:04:26.379Z,16.27
2017-08-11T07:05:26.061Z,16.25
2017-08-11T07:06:26.360Z,16.27
2017-08-11T07:07:26.344Z,16.25
2017-08-11T07:08:26.332Z,16.26
2017-08-11T07:09:26.325Z,16.31
2017-08-11T07:10:26.624Z,16.3
2017-08-11T07:11:26.616Z,16.33
2017-08-11T07:12:26.291Z,16.35
2017-08-11T07:13:26.274Z,16.27
2017-08-11T07:14:26.268Z,16.31
2017-08-11T07:15:26.254Z,16.26
2017-08-11T07:16:26.246Z,16.37
2017-08-11T07:17:26.235Z,16.37
2017-08-11T07:18:26.223Z,16.3
2017-08-11T07:19:25.895Z,16.26
2017-08-11T07:20:26.513Z,16.27
2017-08-11T07:21:26.188Z,16.31
2017-08-11T07:22:26.176Z,16.34
2017-08-11T07:23:26.214Z,16.26
2017-08-11T07:24:26.156Z,16.3
2017-08-11T07:25:25.831Z,16.3
2017-08-11T07:26:26.132Z,16.26
2017-08-11T07:27:26.436Z,16.34
2017-08-11T07:28:26.419Z,16.35
2017-08-11T07:29:26.099Z,16.3
2017-08-11T07:30:26.395Z,16.34
2017-08-11T07:31:26.391Z,16.3
2017-08-11T07:32:26.062Z,16.37
2017-08-11T07:33:26.051Z,16.37
2017-08-11T07:34:26.035Z,16.3
2017-08-11T07:35:26.038Z,16.37
2017-08-11T07:36:26.018Z,16.4
2017-08-11T07:37:26.532Z,16.41
2017-08-11T07:38:26.308Z,16.44
2017-08-11T07:39:26.296Z,16.38
2017-08-11T07:40:25.974Z,16.34
2017-08-11T07:41:25.650Z,16.52
2017-08-11T07:42:25.638Z,16.41
2017-08-11T07:43:26.249Z,16.38
2017-08-11T07:44:26.249Z,16.48
2017-08-11T07:45:26.232Z,16.41
2017-08-11T07:46:26.217Z,16.48
2017-08-11T07:47:26.203Z,16.37
2017-08-11T07:48:26.206Z,16.38
2017-08-11T07:49:26.184Z,16.34
2017-08-11T07:50:25.862Z,16.35
2017-08-11T07:51:25.853Z,16.52
2017-08-11T07:52:25.855Z,16.49
2017-08-11T07:53:26.168Z,16.48
2017-08-11T07:54:26.125Z,16.35
2017-08-11T07:55:26.118Z,16.31
2017-08-11T07:56:25.489Z,16.38
2017-08-11T07:57:25.785Z,16.48
2017-08-11T07:58:26.088Z,16.4
2017-08-11T07:59:25.760Z,16.41
2017-08-11T08:00:26.064Z,16.41
2017-08-11T08:01:25.772Z,16.41
2017-08-11T08:02:26.038Z,16.41
2017-08-11T08:03:26.029Z,16.37
2017-08-11T08:04:26.015Z,16.35
2017-08-11T08:05:26.219Z,16.37
2017-08-11T08:06:25.680Z,16.33
2017-08-11T08:07:25.672Z,16.37
2017-08-11T08:08:25.349Z,16.42
2017-08-11T08:09:25.962Z,16.27
2017-08-11T08:10:25.639Z,16.4
2017-08-11T08:11:25.627Z,16.41
2017-08-11T08:12:25.927Z,16.42
2017-08-11T08:13:25.601Z,16.37
2017-08-11T08:14:25.276Z,16.38
2017-08-11T08:15:25.582Z,16.34
2017-08-11T08:16:25.882Z,16.34
2017-08-11T08:17:25.869Z,16.34
2017-08-11T08:18:25.550Z,16.42
2017-08-11T08:19:25.536Z,16.34
2017-08-11T08:20:25.519Z,16.27
2017-08-11T08:21:25.512Z,16.38
2017-08-11T08:22:25.820Z,16.41
2017-08-11T08:23:25.490Z,16.35
2017-08-11T08:24:25.511Z,16.49
2017-08-11T08:25:25.487Z,16.49
2017-08-11T08:26:25.772Z,16.42
2017-08-11T08:27:25.448Z,16.34
2017-08-11T08:28:25.741Z,16.38
2017-08-11T08:29:25.417Z,16.41
2017-08-11T08:30:25.410Z,16.5
2017-08-11T08:31:25.401Z,16.41
2017-08-11T08:32:25.387Z,16.5
2017-08-11T08:33:25.688Z,16.5
2017-08-11T08:34:25.366Z,16.53
2017-08-11T08:35:25.666Z,16.52
2017-08-11T08:36:25.661Z,16.59
2017-08-11T08:37:25.333Z,16.56
2017-08-11T08:38:25.631Z,16.59
2017-08-11T08:39:25.312Z,16.65
2017-08-11T08:40:25.298Z,16.75
2017-08-11T08:41:25.636Z,16.67
2017-08-11T08:42:25.281Z,16.71
2017-08-11T08:43:25.268Z,16.7
2017-08-11T08:44:25.257Z,16.74
2017-08-11T08:45:25.246Z,16.68
2017-08-11T08:46:25.560Z,16.74
2017-08-11T08:47:24.906Z,16.75
2017-08-11T08:48:25.526Z,16.89
2017-08-11T08:49:25.202Z,16.88
2017-08-11T08:50:25.503Z,16.86
2017-08-11T08:51:25.174Z,16.77
2017-08-11T08:52:24.850Z,16.85
2017-08-11T08:53:25.165Z,16.83
2017-08-11T08:54:25.462Z,16.78
2017-08-11T08:55:25.132Z,16.85
2017-08-11T08:56:25.120Z,17
2017-08-11T08:57:25.421Z,17.03
2017-08-11T08:58:25.099Z,17.07
2017-08-11T08:59:25.404Z,17.11
2017-08-11T09:00:25.077Z,17.1
2017-08-11T09:01:25.081Z,17.1
2017-08-11T09:02:25.375Z,17.17
2017-08-11T09:03:25.046Z,17.18
2017-08-11T09:04:25.034Z,17.26
2017-08-11T09:05:25.033Z,17.22
2017-08-11T09:06:25.010Z,17.25
2017-08-11T09:07:25.318Z,17.22
2017-08-11T09:08:25.049Z,17.23
2017-08-11T09:09:24.988Z,17.22
2017-08-11T09:10:24.973Z,17.29
2017-08-11T09:11:24.965Z,17.32
2017-08-11T09:12:25.263Z,17.28
2017-08-11T09:13:25.252Z,17.32
2017-08-11T09:14:25.246Z,17.33
2017-08-11T09:15:25.235Z,17.35
2017-08-11T09:16:24.915Z,17.35
2017-08-11T09:17:24.900Z,17.41
2017-08-11T09:18:25.203Z,17.51
2017-08-11T09:19:24.884Z,17.35
2017-08-11T09:20:25.184Z,17.43
2017-08-11T09:21:25.177Z,17.35
2017-08-11T09:22:25.168Z,17.33
2017-08-11T09:23:25.159Z,17.41
2017-08-11T09:24:24.834Z,17.35
2017-08-11T09:25:24.831Z,17.41
2017-08-11T09:26:25.130Z,17.35
2017-08-11T09:27:24.493Z,17.4
2017-08-11T09:28:25.109Z,17.3
2017-08-11T09:29:24.831Z,17.3
2017-08-11T09:30:24.773Z,17.28
2017-08-11T09:31:24.766Z,17.29
2017-08-11T09:32:25.268Z,17.32
2017-08-11T09:33:24.743Z,17.29
2017-08-11T09:34:25.046Z,17.28
2017-08-11T09:35:25.037Z,17.33
2017-08-11T09:36:24.396Z,17.4
2017-08-11T09:37:24.905Z,17.29
2017-08-11T09:38:24.688Z,17.38
2017-08-11T09:39:24.679Z,17.38
2017-08-11T09:40:24.666Z,17.41
2017-08-11T09:41:24.970Z,17.48
2017-08-11T09:42:24.962Z,17.44
2017-08-11T09:43:24.954Z,17.43
2017-08-11T09:44:24.629Z,17.4
2017-08-11T09:45:24.615Z,17.44
2017-08-11T09:46:24.926Z,17.43
2017-08-11T09:47:24.905Z,17.41
2017-08-11T09:48:24.900Z,17.4
2017-08-11T09:49:24.890Z,17.4
2017-08-11T09:50:24.879Z,17.29
2017-08-11T09:51:24.876Z,17.28
2017-08-11T09:52:24.864Z,17.3
2017-08-11T09:53:24.231Z,17.28
2017-08-11T09:54:24.837Z,17.26
2017-08-11T09:55:24.577Z,17.26
2017-08-11T09:56:24.511Z,17.26
2017-08-11T09:57:24.496Z,17.28
2017-08-11T09:58:24.481Z,17.28
2017-08-11T09:59:24.524Z,17.32
2017-08-11T10:00:24.468Z,17.33
2017-08-11T10:01:24.764Z,17.3
2017-08-11T10:02:24.445Z,17.29
2017-08-11T10:03:24.749Z,17.36
2017-08-11T10:04:24.420Z,17.41
2017-08-11T10:05:24.724Z,17.32
2017-08-11T10:06:24.714Z,17.3
2017-08-11T10:07:24.388Z,17.36
2017-08-11T10:08:24.399Z,17.33
2017-08-11T10:09:24.380Z,17.35
2017-08-11T10:10:24.363Z,17.33
2017-08-11T10:11:24.661Z,17.4
2017-08-11T10:12:24.339Z,17.38
2017-08-11T10:13:24.328Z,17.33
2017-08-11T10:14:24.326Z,17.33
2017-08-11T10:15:24.624Z,17.32
2017-08-11T10:16:24.304Z,17.33
2017-08-11T10:17:24.289Z,17.32
2017-08-11T10:18:24.583Z,17.3
2017-08-11T10:19:24.581Z,17.3
2017-08-11T10:20:24.569Z,17.36
2017-08-11T10:21:24.557Z,17.4
2017-08-11T10:22:24.239Z,17.35
2017-08-11T10:23:24.225Z,17.51
2017-08-11T10:24:24.521Z,17.36
2017-08-11T10:25:24.515Z,17.44
2017-08-11T10:26:24.202Z,17.51
2017-08-11T10:27:24.233Z,17.48
2017-08-11T10:28:24.187Z,17.54
2017-08-11T10:29:24.166Z,17.5
2017-08-11T10:30:23.844Z,17.7
2017-08-11T10:31:24.453Z,17.74
2017-08-11T10:32:24.134Z,17.79
2017-08-11T10:33:24.469Z,17.85
2017-08-11T10:34:24.116Z,17.82
2017-08-11T10:35:24.421Z,17.81
2017-08-11T10:36:24.402Z,17.87
2017-08-11T10:37:24.082Z,17.97
2017-08-11T10:38:24.397Z,17.84
2017-08-11T10:39:24.377Z,17.84
2017-08-11T10:40:24.048Z,17.99
2017-08-11T10:41:24.063Z,17.87
2017-08-11T10:42:24.342Z,17.82
2017-08-11T10:43:24.334Z,17.94
2017-08-11T10:44:24.326Z,17.81
2017-08-11T10:45:24.005Z,17.89
2017-08-11T10:46:24.308Z,17.88
2017-08-11T10:47:23.724Z,17.87
2017-08-11T10:48:24.040Z,17.89
2017-08-11T10:49:23.965Z,17.88
2017-08-11T10:50:24.257Z,17.84
2017-08-11T10:51:24.260Z,17.76
2017-08-11T10:52:23.622Z,17.81
2017-08-11T10:53:23.957Z,17.74
2017-08-11T10:54:23.969Z,17.73
2017-08-11T10:55:23.905Z,17.71
2017-08-11T10:56:23.893Z,17.81
2017-08-11T10:57:24.194Z,17.76
2017-08-11T10:58:23.876Z,17.69
2017-08-11T10:59:23.562Z,17.74
2017-08-11T11:00:23.865Z,17.74
2017-08-11T11:01:23.900Z,17.74
2017-08-11T11:02:24.147Z,17.79
2017-08-11T11:03:24.182Z,17.81
2017-08-11T11:04:23.816Z,17.84
2017-08-11T11:05:23.808Z,17.85
2017-08-11T11:06:24.111Z,17.74
2017-08-11T11:07:23.782Z,17.82
2017-08-11T11:08:23.773Z,17.81
2017-08-11T11:09:23.761Z,17.76
2017-08-11T11:10:23.443Z,17.81
2017-08-11T11:11:24.058Z,17.64
2017-08-11T11:12:23.737Z,17.57
2017-08-11T11:13:23.413Z,17.62
2017-08-11T11:14:23.713Z,17.5
2017-08-11T11:15:23.706Z,17.55
2017-08-11T11:16:24.003Z,17.54
2017-08-11T11:17:23.371Z,17.47
2017-08-11T11:18:23.672Z,17.44
2017-08-11T11:19:23.974Z,17.5
2017-08-11T11:20:23.658Z,17.5
2017-08-11T11:21:23.640Z,17.4
2017-08-11T11:22:23.628Z,17.43
2017-08-11T11:23:23.312Z,17.44
2017-08-11T11:24:23.933Z,17.5
2017-08-11T11:25:23.604Z,17.54
2017-08-11T11:26:23.903Z,17.48
2017-08-11T11:27:23.581Z,17.38
2017-08-11T11:28:23.877Z,17.46
2017-08-11T11:29:23.869Z,17.33
2017-08-11T11:30:23.861Z,17.33
2017-08-11T11:31:23.850Z,17.38
2017-08-11T11:32:23.524Z,17.35
2017-08-11T11:33:23.828Z,17.32
2017-08-11T11:34:23.825Z,17.35
2017-08-11T11:35:23.859Z,17.32
2017-08-11T11:36:23.797Z,17.33
2017-08-11T11:37:23.790Z,17.33
2017-08-11T11:38:23.771Z,17.28
2017-08-11T11:39:23.764Z,17.33
2017-08-11T11:40:23.444Z,17.33
2017-08-11T11:41:23.430Z,17.32
2017-08-11T11:42:23.734Z,17.3
2017-08-11T11:43:23.724Z,17.28
2017-08-11T11:44:23.713Z,17.3
2017-08-11T11:45:23.093Z,17.29
2017-08-11T11:46:23.707Z,17.25
2017-08-11T11:47:23.373Z,17.22
2017-08-11T11:48:23.358Z,17.29
2017-08-11T11:49:23.661Z,17.28
2017-08-11T11:50:23.852Z,17.26
2017-08-11T11:51:23.643Z,17.3
2017-08-11T11:52:23.667Z,17.3
2017-08-11T11:53:22.992Z,17.3
2017-08-11T11:54:23.349Z,17.32
2017-08-11T11:55:23.592Z,17.29
2017-08-11T11:56:23.272Z,17.3
2017-08-11T11:57:23.580Z,17.35
2017-08-11T11:58:22.938Z,17.3
2017-08-11T11:59:23.558Z,17.28
2017-08-11T12:00:23.228Z,17.26
2017-08-11T12:01:23.223Z,17.29
2017-08-11T12:02:22.897Z,17.35
2017-08-11T12:03:23.202Z,17.25
2017-08-11T12:04:23.193Z,17.33
2017-08-11T12:05:23.488Z,17.33
2017-08-11T12:06:23.483Z,17.28
2017-08-11T12:07:23.463Z,17.29
2017-08-11T12:08:23.144Z,17.3
2017-08-11T12:09:22.823Z,17.4
2017-08-11T12:10:23.125Z,17.3
2017-08-11T12:11:23.111Z,17.28
2017-08-11T12:12:23.414Z,17.23
2017-08-11T12:13:23.409Z,17.22
2017-08-11T12:14:23.089Z,17.22
2017-08-11T12:15:23.074Z,17.26
2017-08-11T12:16:23.433Z,17.17
2017-08-11T12:17:23.397Z,17.22
2017-08-11T12:18:23.353Z,17.25
2017-08-11T12:19:23.027Z,17.15
2017-08-11T12:20:23.335Z,17.18
2017-08-11T12:21:23.316Z,17.22
2017-08-11T12:22:23.001Z,17.17
2017-08-11T12:23:22.989Z,17.23
2017-08-11T12:24:23.287Z,17.17
2017-08-11T12:25:23.279Z,17.15
2017-08-11T12:26:22.951Z,17.2
2017-08-11T12:27:23.256Z,17.18
2017-08-11T12:28:23.254Z,17.18
2017-08-11T12:29:22.925Z,17.25
2017-08-11T12:30:22.909Z,17.26
2017-08-11T12:31:22.906Z,17.29
2017-08-11T12:32:22.579Z,17.33
2017-08-11T12:33:23.191Z,17.3
2017-08-11T12:34:22.870Z,17.3
2017-08-11T12:35:22.543Z,17.36
2017-08-11T12:36:22.853Z,17.38
2017-08-11T12:37:22.864Z,17.4
2017-08-11T12:38:23.136Z,17.36
2017-08-11T12:39:22.818Z,17.46
2017-08-11T12:40:23.117Z,17.43
2017-08-11T12:41:22.790Z,17.48
2017-08-11T12:42:23.100Z,17.47
2017-08-11T12:43:23.085Z,17.5
2017-08-11T12:44:23.076Z,17.53
2017-08-11T12:45:22.751Z,17.43
2017-08-11T12:46:23.105Z,17.48
2017-08-11T12:47:22.727Z,17.47
2017-08-11T12:48:23.040Z,17.5
2017-08-11T12:49:23.030Z,17.41
2017-08-11T12:50:23.021Z,17.54
2017-08-11T12:51:22.378Z,17.4
2017-08-11T12:52:22.993Z,17.44
2017-08-11T12:53:22.981Z,17.46
2017-08-11T12:54:22.964Z,17.4
2017-08-11T12:55:22.654Z,17.53
2017-08-11T12:56:22.640Z,17.54